sensor_id;sensor_type;location;lat;lon;timestamp;P1;durP1;ratioP1;P2;durP2;ratioP2
76846;SDS011;65813;49.546;8.644;2023-06-14T03:02:52;5.57;;;3.65;;
76846;SDS011;65813;49.546;8.644;2023-06-14T03:06:54;6.50;;;4.05;;
76846;SDS011;65813;49.546;8.644;2023-06-14T03:10:54;8.63;;;4.22;;
76846;SDS011;65813;49.546;8.644;2023-06-14T03:14:56;6.55;;;4.38;;
76846;SDS011;65813;49.546;8.644;2023-06-14T03:18:56;6.45;;;4.30;;
76846;SDS011;65813;49.546;8.644;2023-06-14T03:22:57;6.90;;;4.30;;
76846;SDS011;65813;49.546;8.644;2023-06-14T03:26:57;6.27;;;3.77;;
76846;SDS011;65813;49.546;8.644;2023-06-14T03:30:57;6.33;;;4.50;;
76846;SDS011;65813;49.546;8.644;2023-06-14T03:34:58;9.37;;;4.20;;
76846;SDS011;65813;49.546;8.644;2023-06-14T03:38:58;10.63;;;4.20;;
76846;SDS011;65813;49.546;8.644;2023-06-14T03:42:58;5.63;;;3.90;;
76846;SDS011;65813;49.546;8.644;2023-06-14T03:46:58;7.37;;;4.20;;
76846;SDS011;65813;49.546;8.644;2023-06-14T03:50:59;5.40;;;4.10;;
76846;SDS011;65813;49.546;8.644;2023-06-14T03:54:59;8.68;;;3.97;;
76846;SDS011;65813;49.546;8.644;2023-06-14T03:59:02;7.70;;;4.30;;
76846;SDS011;65813;49.546;8.644;2023-06-14T04:03:03;6.17;;;3.87;;
76846;SDS011;65813;49.546;8.644;2023-06-14T04:07:05;5.60;;;3.90;;
76846;SDS011;65813;49.546;8.644;2023-06-14T04:11:08;5.15;;;3.33;;
76846;SDS011;65813;49.546;8.644;2023-06-14T04:15:09;7.00;;;4.13;;
76846;SDS011;65813;49.546;8.644;2023-06-14T04:19:09;7.82;;;4.13;;
76846;SDS011;65813;49.546;8.644;2023-06-14T04:23:13;6.47;;;4.32;;
76846;SDS011;65813;49.546;8.644;2023-06-14T04:27:18;7.38;;;4.45;;
76846;SDS011;65813;49.546;8.644;2023-06-14T04:31:21;6.22;;;4.30;;
76846;SDS011;65813;49.546;8.644;2023-06-14T04:35:24;5.32;;;4.00;;
76846;SDS011;65813;49.546;8.644;2023-06-14T04:39:25;5.95;;;3.90;;
76846;SDS011;65813;49.546;8.644;2023-06-14T04:43:27;6.10;;;3.83;;
76846;SDS011;65813;49.546;8.644;2023-06-14T04:47:27;5.82;;;3.67;;
76846;SDS011;65813;49.546;8.644;2023-06-14T04:51:29;6.22;;;4.32;;
76846;SDS011;65813;49.546;8.644;2023-06-14T04:55:31;6.45;;;4.15;;
76846;SDS011;65813;49.546;8.644;2023-06-14T04:59:32;7.85;;;4.15;;
76846;SDS011;65813;49.546;8.644;2023-06-14T05:03:35;6.68;;;4.28;;
76846;SDS011;65813;49.546;8.644;2023-06-14T05:07:35;5.77;;;4.10;;
76846;SDS011;65813;49.546;8.644;2023-06-14T05:11:36;8.60;;;4.30;;
76846;SDS011;65813;49.546;8.644;2023-06-14T05:15:36;7.13;;;4.03;;
76846;SDS011;65813;49.546;8.644;2023-06-14T05:19:36;6.97;;;4.57;;
76846;SDS011;65813;49.546;8.644;2023-06-14T05:23:37;7.83;;;4.07;;
76846;SDS011;65813;49.546;8.644;2023-06-14T05:27:37;7.30;;;5.00;;
76846;SDS011;65813;49.546;8.644;2023-06-14T05:31:37;5.78;;;3.92;;
76846;SDS011;65813;49.546;8.644;2023-06-14T05:35:38;6.90;;;4.13;;
76846;SDS011;65813;49.546;8.644;2023-06-14T05:39:38;6.13;;;4.60;;
76846;SDS011;65813;49.546;8.644;2023-06-14T05:43:39;6.77;;;4.50;;
76846;SDS011;65813;49.546;8.644;2023-06-14T05:47:39;7.47;;;4.50;;
76846;SDS011;65813;49.546;8.644;2023-06-14T05:51:39;7.57;;;4.33;;
76846;SDS011;65813;49.546;8.644;2023-06-14T05:55:40;6.57;;;4.45;;
76846;SDS011;65813;49.546;8.644;2023-06-14T05:59:40;7.97;;;4.30;;
76846;SDS011;65813;49.546;8.644;2023-06-14T06:03:41;6.03;;;3.88;;
76846;SDS011;65813;49.546;8.644;2023-06-14T06:07:45;5.53;;;4.03;;
76846;SDS011;65813;49.546;8.644;2023-06-14T06:11:46;6.82;;;4.70;;
76846;SDS011;65813;49.546;8.644;2023-06-14T06:15:46;6.90;;;4.23;;
76846;SDS011;65813;49.546;8.644;2023-06-14T06:19:46;6.40;;;4.60;;
76846;SDS011;65813;49.546;8.644;2023-06-14T06:23:47;10.03;;;4.63;;
76846;SDS011;65813;49.546;8.644;2023-06-14T06:27:47;6.77;;;4.50;;
76846;SDS011;65813;49.546;8.644;2023-06-14T06:31:47;7.33;;;4.67;;
76846;SDS011;65813;49.546;8.644;2023-06-14T06:35:48;7.10;;;4.10;;
76846;SDS011;65813;49.546;8.644;2023-06-14T06:39:48;5.97;;;3.80;;
76846;SDS011;65813;49.546;8.644;2023-06-14T06:43:48;6.23;;;3.43;;
76846;SDS011;65813;49.546;8.644;2023-06-14T06:47:49;7.47;;;4.40;;
76846;SDS011;65813;49.546;8.644;2023-06-14T06:51:59;7.78;;;3.95;;
76846;SDS011;65813;49.546;8.644;2023-06-14T06:56:04;6.53;;;3.90;;
76846;SDS011;65813;49.546;8.644;2023-06-14T07:00:06;7.53;;;3.40;;
76846;SDS011;65813;49.546;8.644;2023-06-14T07:04:09;6.10;;;3.90;;
76846;SDS011;65813;49.546;8.644;2023-06-14T07:08:10;7.37;;;3.80;;
76846;SDS011;65813;49.546;8.644;2023-06-14T07:12:10;6.70;;;4.13;;
76846;SDS011;65813;49.546;8.644;2023-06-14T07:16:11;7.75;;;4.10;;
76846;SDS011;65813;49.546;8.644;2023-06-14T07:20:12;7.10;;;4.10;;
76846;SDS011;65813;49.546;8.644;2023-06-14T07:24:13;8.32;;;4.30;;
76846;SDS011;65813;49.546;8.644;2023-06-14T07:28:13;5.30;;;4.13;;
76846;SDS011;65813;49.546;8.644;2023-06-14T07:32:14;8.60;;;4.15;;
76846;SDS011;65813;49.546;8.644;2023-06-14T07:36:14;6.20;;;3.83;;
76846;SDS011;65813;49.546;8.644;2023-06-14T07:40:15;7.10;;;4.05;;
76846;SDS011;65813;49.546;8.644;2023-06-14T07:44:15;5.90;;;3.63;;
76846;SDS011;65813;49.546;8.644;2023-06-14T07:48:16;7.88;;;3.60;;
76846;SDS011;65813;49.546;8.644;2023-06-14T07:52:16;5.72;;;3.45;;
76846;SDS011;65813;49.546;8.644;2023-06-14T07:56:17;7.70;;;3.60;;
76846;SDS011;65813;49.546;8.644;2023-06-14T08:00:18;6.40;;;3.60;;
76846;SDS011;65813;49.546;8.644;2023-06-14T08:04:19;5.95;;;3.70;;
76846;SDS011;65813;49.546;8.644;2023-06-14T08:08:19;7.10;;;3.50;;
76846;SDS011;65813;49.546;8.644;2023-06-14T08:12:20;7.13;;;3.80;;
76846;SDS011;65813;49.546;8.644;2023-06-14T08:16:20;5.83;;;3.50;;
76846;SDS011;65813;49.546;8.644;2023-06-14T08:20:20;5.90;;;3.63;;
76846;SDS011;65813;49.546;8.644;2023-06-14T08:24:21;7.40;;;3.50;;
76846;SDS011;65813;49.546;8.644;2023-06-14T08:28:24;9.25;;;4.40;;
76846;SDS011;65813;49.546;8.644;2023-06-14T08:32:24;7.32;;;4.43;;
76846;SDS011;65813;49.546;8.644;2023-06-14T08:36:25;9.53;;;4.13;;
76846;SDS011;65813;49.546;8.644;2023-06-14T08:40:25;5.70;;;3.57;;
76846;SDS011;65813;49.546;8.644;2023-06-14T08:48:30;6.03;;;3.60;;
76846;SDS011;65813;49.546;8.644;2023-06-14T08:52:33;4.88;;;3.40;;
76846;SDS011;65813;49.546;8.644;2023-06-14T08:56:40;5.07;;;3.50;;
76846;SDS011;65813;49.546;8.644;2023-06-14T09:00:41;6.30;;;3.35;;
76846;SDS011;65813;49.546;8.644;2023-06-14T09:04:42;8.75;;;3.60;;
76846;SDS011;65813;49.546;8.644;2023-06-14T09:08:43;5.70;;;3.30;;
76846;SDS011;65813;49.546;8.644;2023-06-14T09:12:44;6.65;;;3.63;;
76846;SDS011;65813;49.546;8.644;2023-06-14T09:16:44;5.90;;;3.40;;
76846;SDS011;65813;49.546;8.644;2023-06-14T09:20:45;5.15;;;3.67;;
76846;SDS011;65813;49.546;8.644;2023-06-14T09:24:47;6.70;;;3.33;;
76846;SDS011;65813;49.546;8.644;2023-06-14T09:28:48;6.93;;;3.53;;
76846;SDS011;65813;49.546;8.644;2023-06-14T09:32:49;5.22;;;3.03;;
76846;SDS011;65813;49.546;8.644;2023-06-14T09:36:50;5.38;;;3.55;;
76846;SDS011;65813;49.546;8.644;2023-06-14T09:40:51;5.60;;;3.50;;
76846;SDS011;65813;49.546;8.644;2023-06-14T09:44:52;5.47;;;3.00;;
76846;SDS011;65813;49.546;8.644;2023-06-14T09:48:54;6.07;;;3.17;;
76846;SDS011;65813;49.546;8.644;2023-06-14T09:52:54;5.50;;;3.40;;
76846;SDS011;65813;49.546;8.644;2023-06-14T09:57:01;6.10;;;4.28;;
76846;SDS011;65813;49.546;8.644;2023-06-14T10:01:03;8.73;;;3.60;;
76846;SDS011;65813;49.546;8.644;2023-06-14T10:05:09;5.38;;;3.60;;
76846;SDS011;65813;49.546;8.644;2023-06-14T10:09:15;5.05;;;2.97;;
76846;SDS011;65813;49.546;8.644;2023-06-14T10:13:16;5.97;;;3.20;;
76846;SDS011;65813;49.546;8.644;2023-06-14T10:17:20;5.35;;;2.90;;
76846;SDS011;65813;49.546;8.644;2023-06-14T10:25:58;7.05;;;3.65;;
76846;SDS011;65813;49.546;8.644;2023-06-14T10:34:00;5.45;;;3.75;;
76846;SDS011;65813;49.546;8.644;2023-06-14T10:38:10;7.40;;;3.30;;
76846;SDS011;65813;49.546;8.644;2023-06-14T10:42:12;4.68;;;3.08;;
76846;SDS011;65813;49.546;8.644;2023-06-14T10:46:17;5.70;;;3.30;;
76846;SDS011;65813;49.546;8.644;2023-06-14T10:50:24;4.68;;;3.25;;
76846;SDS011;65813;49.546;8.644;2023-06-14T10:54:28;5.10;;;3.20;;
76846;SDS011;65813;49.546;8.644;2023-06-14T10:58:28;6.50;;;3.50;;
76846;SDS011;65813;49.546;8.644;2023-06-14T11:07:10;4.68;;;3.20;;
76846;SDS011;65813;49.546;8.644;2023-06-14T11:11:21;4.38;;;2.97;;
76846;SDS011;65813;49.546;8.644;2023-06-14T11:15:29;7.15;;;3.05;;
76846;SDS011;65813;49.546;8.644;2023-06-14T11:19:31;4.85;;;3.15;;
76846;SDS011;65813;49.546;8.644;2023-06-14T11:23:31;6.40;;;3.20;;
76846;SDS011;65813;49.546;8.644;2023-06-14T11:27:32;10.02;;;3.22;;
76846;SDS011;65813;49.546;8.644;2023-06-14T11:31:33;5.10;;;2.88;;
76846;SDS011;65813;49.546;8.644;2023-06-14T11:35:33;5.10;;;3.30;;
76846;SDS011;65813;49.546;8.644;2023-06-14T11:39:34;6.90;;;3.58;;
76846;SDS011;65813;49.546;8.644;2023-06-14T11:43:35;7.22;;;3.47;;
76846;SDS011;65813;49.546;8.644;2023-06-14T11:47:36;5.07;;;3.10;;
76846;SDS011;65813;49.546;8.644;2023-06-14T11:51:37;4.82;;;2.92;;
76846;SDS011;65813;49.546;8.644;2023-06-14T11:55:38;4.53;;;3.10;;
76846;SDS011;65813;49.546;8.644;2023-06-14T11:59:40;5.47;;;3.45;;
76846;SDS011;65813;49.546;8.644;2023-06-14T12:03:46;5.93;;;3.08;;
76846;SDS011;65813;49.546;8.644;2023-06-14T12:07:48;6.25;;;3.60;;
76846;SDS011;65813;49.546;8.644;2023-06-14T12:11:50;5.50;;;3.28;;
76846;SDS011;65813;49.546;8.644;2023-06-14T12:15:54;8.00;;;3.33;;
76846;SDS011;65813;49.546;8.644;2023-06-14T12:19:55;4.03;;;2.60;;
76846;SDS011;65813;49.546;8.644;2023-06-14T12:23:56;5.43;;;3.17;;
76846;SDS011;65813;49.546;8.644;2023-06-14T12:27:57;16.03;;;3.20;;
76846;SDS011;65813;49.546;8.644;2023-06-14T12:31:58;4.70;;;3.20;;
76846;SDS011;65813;49.546;8.644;2023-06-14T12:35:58;4.53;;;3.03;;
76846;SDS011;65813;49.546;8.644;2023-06-14T12:39:58;5.23;;;3.00;;
76846;SDS011;65813;49.546;8.644;2023-06-14T12:43:59;4.30;;;3.05;;
76846;SDS011;65813;49.546;8.644;2023-06-14T12:48:04;6.43;;;3.20;;
76846;SDS011;65813;49.546;8.644;2023-06-14T12:52:04;6.47;;;2.90;;
76846;SDS011;65813;49.546;8.644;2023-06-14T12:56:05;4.85;;;2.88;;
76846;SDS011;65813;49.546;8.644;2023-06-14T13:00:05;5.28;;;3.10;;
76846;SDS011;65813;49.546;8.644;2023-06-14T13:04:07;3.78;;;2.92;;
76846;SDS011;65813;49.546;8.644;2023-06-14T13:08:08;6.05;;;3.05;;
76846;SDS011;65813;49.546;8.644;2023-06-14T13:12:10;5.13;;;3.40;;
76846;SDS011;65813;49.546;8.644;2023-06-14T13:16:11;4.97;;;3.20;;
76846;SDS011;65813;49.546;8.644;2023-06-14T13:20:14;5.55;;;3.10;;
76846;SDS011;65813;49.546;8.644;2023-06-14T13:24:16;4.47;;;3.20;;
76846;SDS011;65813;49.546;8.644;2023-06-14T13:28:16;5.77;;;3.20;;
76846;SDS011;65813;49.546;8.644;2023-06-14T13:32:16;7.10;;;3.28;;
76846;SDS011;65813;49.546;8.644;2023-06-14T13:36:17;5.10;;;3.60;;
76846;SDS011;65813;49.546;8.644;2023-06-14T13:40:17;5.10;;;3.45;;
76846;SDS011;65813;49.546;8.644;2023-06-14T13:44:18;6.32;;;3.45;;
76846;SDS011;65813;49.546;8.644;2023-06-14T13:48:21;5.57;;;3.80;;
76846;SDS011;65813;49.546;8.644;2023-06-14T13:52:21;5.22;;;3.47;;
76846;SDS011;65813;49.546;8.644;2023-06-14T13:56:22;5.30;;;3.30;;
76846;SDS011;65813;49.546;8.644;2023-06-14T14:00:24;4.78;;;3.30;;
76846;SDS011;65813;49.546;8.644;2023-06-14T14:04:25;5.22;;;3.80;;
76846;SDS011;65813;49.546;8.644;2023-06-14T14:08:25;5.30;;;3.30;;
76846;SDS011;65813;49.546;8.644;2023-06-14T14:12:25;4.88;;;3.72;;
76846;SDS011;65813;49.546;8.644;2023-06-14T14:16:26;4.80;;;3.70;;
76846;SDS011;65813;49.546;8.644;2023-06-14T14:20:27;4.57;;;3.40;;
76846;SDS011;65813;49.546;8.644;2023-06-14T14:24:30;5.45;;;3.58;;
76846;SDS011;65813;49.546;8.644;2023-06-14T14:28:30;5.67;;;3.53;;
76846;SDS011;65813;49.546;8.644;2023-06-14T14:32:32;5.00;;;3.50;;
76846;SDS011;65813;49.546;8.644;2023-06-14T14:36:32;4.87;;;3.20;;
76846;SDS011;65813;49.546;8.644;2023-06-14T14:40:37;4.63;;;3.20;;
76846;SDS011;65813;49.546;8.644;2023-06-14T14:44:39;5.68;;;3.60;;
76846;SDS011;65813;49.546;8.644;2023-06-14T14:48:39;6.18;;;3.30;;
76846;SDS011;65813;49.546;8.644;2023-06-14T14:52:40;5.53;;;3.20;;
76846;SDS011;65813;49.546;8.644;2023-06-14T14:56:40;5.13;;;3.60;;
76846;SDS011;65813;49.546;8.644;2023-06-14T15:00:40;7.20;;;3.40;;
76846;SDS011;65813;49.546;8.644;2023-06-14T15:04:40;4.30;;;3.30;;
76846;SDS011;65813;49.546;8.644;2023-06-14T15:08:41;4.13;;;3.20;;
76846;SDS011;65813;49.546;8.644;2023-06-14T15:12:41;8.45;;;4.15;;
76846;SDS011;65813;49.546;8.644;2023-06-14T15:16:41;4.88;;;3.17;;
76846;SDS011;65813;49.546;8.644;2023-06-14T15:20:42;5.57;;;3.08;;
76846;SDS011;65813;49.546;8.644;2023-06-14T15:24:43;5.70;;;3.30;;
76846;SDS011;65813;49.546;8.644;2023-06-14T15:28:44;4.60;;;3.00;;
76846;SDS011;65813;49.546;8.644;2023-06-14T15:32:44;5.57;;;3.00;;
76846;SDS011;65813;49.546;8.644;2023-06-14T15:36:45;5.35;;;3.10;;
76846;SDS011;65813;49.546;8.644;2023-06-14T15:40:45;4.60;;;3.23;;
76846;SDS011;65813;49.546;8.644;2023-06-14T15:44:46;5.07;;;3.25;;
76846;SDS011;65813;49.546;8.644;2023-06-14T15:48:47;4.78;;;3.38;;
76846;SDS011;65813;49.546;8.644;2023-06-14T15:52:47;4.50;;;3.50;;
76846;SDS011;65813;49.546;8.644;2023-06-14T15:56:48;4.57;;;3.23;;
76846;SDS011;65813;49.546;8.644;2023-06-14T16:00:48;4.43;;;3.00;;
76846;SDS011;65813;49.546;8.644;2023-06-14T16:04:48;7.80;;;4.30;;
76846;SDS011;65813;49.546;8.644;2023-06-14T16:08:48;5.73;;;3.47;;
76846;SDS011;65813;49.546;8.644;2023-06-14T16:12:49;5.35;;;3.35;;
76846;SDS011;65813;49.546;8.644;2023-06-14T16:16:49;4.93;;;3.40;;
76846;SDS011;65813;49.546;8.644;2023-06-14T16:20:50;4.90;;;3.10;;
76846;SDS011;65813;49.546;8.644;2023-06-14T16:24:50;5.03;;;3.10;;
76846;SDS011;65813;49.546;8.644;2023-06-14T16:28:50;5.77;;;2.90;;
76846;SDS011;65813;49.546;8.644;2023-06-14T16:32:51;3.60;;;2.70;;
76846;SDS011;65813;49.546;8.644;2023-06-14T16:36:51;4.90;;;3.37;;
76846;SDS011;65813;49.546;8.644;2023-06-14T16:40:51;5.13;;;3.37;;
76846;SDS011;65813;49.546;8.644;2023-06-14T16:44:52;4.63;;;3.30;;
76846;SDS011;65813;49.546;8.644;2023-06-14T16:48:52;4.67;;;3.13;;
76846;SDS011;65813;49.546;8.644;2023-06-14T16:52:52;4.20;;;2.90;;
76846;SDS011;65813;49.546;8.644;2023-06-14T16:56:52;5.43;;;3.47;;
76846;SDS011;65813;49.546;8.644;2023-06-14T17:00:53;6.73;;;3.63;;
76846;SDS011;65813;49.546;8.644;2023-06-14T17:04:53;5.57;;;3.97;;
76846;SDS011;65813;49.546;8.644;2023-06-14T17:08:53;6.57;;;4.53;;
76846;SDS011;65813;49.546;8.644;2023-06-14T17:12:54;5.00;;;3.40;;
76846;SDS011;65813;49.546;8.644;2023-06-14T17:16:54;5.30;;;3.03;;
76846;SDS011;65813;49.546;8.644;2023-06-14T17:20:55;4.25;;;3.13;;
76846;SDS011;65813;49.546;8.644;2023-06-14T17:24:55;5.23;;;3.20;;
76846;SDS011;65813;49.546;8.644;2023-06-14T17:28:56;4.30;;;3.10;;
76846;SDS011;65813;49.546;8.644;2023-06-14T17:32:56;4.38;;;3.10;;
76846;SDS011;65813;49.546;8.644;2023-06-14T17:36:57;4.05;;;2.70;;
76846;SDS011;65813;49.546;8.644;2023-06-14T17:40:57;5.60;;;3.27;;
76846;SDS011;65813;49.546;8.644;2023-06-14T17:45:00;4.40;;;2.80;;
76846;SDS011;65813;49.546;8.644;2023-06-14T17:49:01;5.05;;;2.65;;
76846;SDS011;65813;49.546;8.644;2023-06-14T17:53:01;5.50;;;3.20;;
76846;SDS011;65813;49.546;8.644;2023-06-14T17:57:03;6.50;;;2.78;;
76846;SDS011;65813;49.546;8.644;2023-06-14T18:01:04;4.70;;;3.03;;
76846;SDS011;65813;49.546;8.644;2023-06-14T18:05:04;4.35;;;2.80;;
76846;SDS011;65813;49.546;8.644;2023-06-14T18:09:05;5.70;;;3.00;;
76846;SDS011;65813;49.546;8.644;2023-06-14T18:13:05;4.07;;;2.77;;
76846;SDS011;65813;49.546;8.644;2023-06-14T18:17:06;4.60;;;3.05;;
76846;SDS011;65813;49.546;8.644;2023-06-14T18:21:06;4.63;;;2.57;;
76846;SDS011;65813;49.546;8.644;2023-06-14T18:25:07;4.22;;;2.70;;
76846;SDS011;65813;49.546;8.644;2023-06-14T18:29:07;4.57;;;2.80;;
76846;SDS011;65813;49.546;8.644;2023-06-14T18:33:08;4.85;;;2.75;;
76846;SDS011;65813;49.546;8.644;2023-06-14T18:37:09;5.13;;;2.75;;
76846;SDS011;65813;49.546;8.644;2023-06-14T18:41:10;4.13;;;2.85;;
76846;SDS011;65813;49.546;8.644;2023-06-14T18:45:10;4.10;;;2.50;;
76846;SDS011;65813;49.546;8.644;2023-06-14T18:49:11;3.70;;;2.47;;
76846;SDS011;65813;49.546;8.644;2023-06-14T18:53:11;4.37;;;2.60;;
76846;SDS011;65813;49.546;8.644;2023-06-14T18:57:11;4.77;;;2.70;;
76846;SDS011;65813;49.546;8.644;2023-06-14T19:01:12;5.70;;;2.90;;
76846;SDS011;65813;49.546;8.644;2023-06-14T19:05:12;4.32;;;2.63;;
76846;SDS011;65813;49.546;8.644;2023-06-14T19:09:13;5.22;;;2.60;;
76846;SDS011;65813;49.546;8.644;2023-06-14T19:13:14;4.07;;;2.60;;
76846;SDS011;65813;49.546;8.644;2023-06-14T19:17:15;6.30;;;2.63;;
76846;SDS011;65813;49.546;8.644;2023-06-14T19:21:15;5.40;;;2.87;;
76846;SDS011;65813;49.546;8.644;2023-06-14T19:25:15;6.43;;;3.00;;
76846;SDS011;65813;49.546;8.644;2023-06-14T19:29:16;3.97;;;2.67;;
76846;SDS011;65813;49.546;8.644;2023-06-14T19:33:16;4.47;;;2.83;;
76846;SDS011;65813;49.546;8.644;2023-06-14T19:37:17;11.68;;;3.10;;
76846;SDS011;65813;49.546;8.644;2023-06-14T19:41:17;5.03;;;3.10;;
76846;SDS011;65813;49.546;8.644;2023-06-14T19:45:17;5.55;;;2.80;;
76846;SDS011;65813;49.546;8.644;2023-06-14T19:49:18;4.80;;;2.67;;
76846;SDS011;65813;49.546;8.644;2023-06-14T19:53:18;5.90;;;3.15;;
76846;SDS011;65813;49.546;8.644;2023-06-14T19:57:20;5.18;;;3.08;;
76846;SDS011;65813;49.546;8.644;2023-06-14T20:01:20;4.60;;;2.80;;
76846;SDS011;65813;49.546;8.644;2023-06-14T20:05:20;4.30;;;2.80;;
76846;SDS011;65813;49.546;8.644;2023-06-14T20:09:21;6.07;;;3.20;;
76846;SDS011;65813;49.546;8.644;2023-06-14T20:13:21;4.88;;;2.70;;
76846;SDS011;65813;49.546;8.644;2023-06-14T20:17:21;5.33;;;3.27;;
76846;SDS011;65813;49.546;8.644;2023-06-14T20:21:23;4.40;;;2.58;;
76846;SDS011;65813;49.546;8.644;2023-06-14T20:25:23;5.50;;;3.37;;
76846;SDS011;65813;49.546;8.644;2023-06-14T20:29:23;4.55;;;3.03;;
76846;SDS011;65813;49.546;8.644;2023-06-14T20:33:24;6.60;;;3.10;;
76846;SDS011;65813;49.546;8.644;2023-06-14T20:37:24;6.47;;;3.05;;
76846;SDS011;65813;49.546;8.644;2023-06-14T20:41:26;9.13;;;3.22;;
76846;SDS011;65813;49.546;8.644;2023-06-14T20:45:26;5.43;;;3.22;;
76846;SDS011;65813;49.546;8.644;2023-06-14T20:49:26;6.70;;;3.27;;
76846;SDS011;65813;49.546;8.644;2023-06-14T20:53:27;6.60;;;3.00;;
76846;SDS011;65813;49.546;8.644;2023-06-14T20:57:27;7.05;;;3.35;;
76846;SDS011;65813;49.546;8.644;2023-06-14T21:01:27;7.20;;;3.37;;
76846;SDS011;65813;49.546;8.644;2023-06-14T21:05:35;6.40;;;3.00;;
76846;SDS011;65813;49.546;8.644;2023-06-14T21:09:35;4.53;;;3.03;;
76846;SDS011;65813;49.546;8.644;2023-06-14T21:13:35;5.25;;;3.22;;
